Alem Mar — CUFT8 — position and weather

sailwx.info

Track history (hours):
 
Tides and Currents Weather Stations Pressure Air Temp Water Temp Dewpoint Dewpoint Depression Visibility Wind Speed Wind Dir Waves Ship Positions

Alem Mar

Last reported at 2017-Sep-25 22:57 UTC. Time now 2017-Sep-26 02:03 UTC.
Position N 41°02' W 008°46'.

Type: Fishing. MMSI: 263414680.

Date/timePositionNaut miles runAvg speedWind from/ knotsBaromVisibWave heightAir tempDewpointWater temp
2017-Sep-25 22:57N 41°02' W 008°46'4 9.8
2017-Sep-25 22:31N 41°06' W 008°44'5 9.5
2017-Sep-25 22:01N 41°11' W 008°42'0 0.5
2017-Sep-25 21:31N 41°11' W 008°42'0 0.0
2017-Sep-25 21:00N 41°11' W 008°42'0 0.0
2017-Sep-25 20:31N 41°11' W 008°42'0 0.0
2017-Sep-25 20:00N 41°11' W 008°42'0 0.0
2017-Sep-25 19:31N 41°11' W 008°42'0 0.0
2017-Sep-25 19:01N 41°11' W 008°42'0 0.0
2017-Sep-25 18:31N 41°11' W 008°42'0 0.0
2017-Sep-25 18:01N 41°11' W 008°42'0 0.0
2017-Sep-25 17:31N 41°11' W 008°42'0 0.0
2017-Sep-25 17:01N 41°11' W 008°42'0 0.0
2017-Sep-25 16:31N 41°11' W 008°42'0 0.0
2017-Sep-25 16:01N 41°11' W 008°42'0 0.0
2017-Sep-25 15:31N 41°11' W 008°42'0 0.0
2017-Sep-25 15:01N 41°11' W 008°42'0 0.0
2017-Sep-25 14:31N 41°11' W 008°42'0 0.0
2017-Sep-25 14:01N 41°11' W 008°42'0 0.0
2017-Sep-25 13:31N 41°11' W 008°42'0 0.0
2017-Sep-25 13:01N 41°11' W 008°42'0 0.0
2017-Sep-25 12:31N 41°11' W 008°42'0 0.0
2017-Sep-25 12:01N 41°11' W 008°42'0 0.0
2017-Sep-25 11:31N 41°11' W 008°42'0 0.0
2017-Sep-25 11:01N 41°11' W 008°42'0 0.0
2017-Sep-25 10:31N 41°11' W 008°42'0 0.0
2017-Sep-25 10:01N 41°11' W 008°42'0 0.0
2017-Sep-25 09:31N 41°11' W 008°42'0 0.0
2017-Sep-25 09:00N 41°11' W 008°42'0 0.0
2017-Sep-25 08:30N 41°11' W 008°42'0 0.0
2017-Sep-25 08:01N 41°11' W 008°42'0 0.0
2017-Sep-25 07:31N 41°11' W 008°42'0 0.0
2017-Sep-25 07:01N 41°11' W 008°42'0 0.0
2017-Sep-25 06:31N 41°11' W 008°42'4 0.6
2017-Sep-24 23:21N 41°08' W 008°45'3 9.4
2017-Sep-24 23:01N 41°10' W 008°43'  
2017-Sep-21 22:41N 41°05' W 008°43'210.4
2017-Sep-21 22:30N 41°07' W 008°43'4 7.7
2017-Sep-21 22:00N 41°11' W 008°42'  
Track history (hours):
 
Tides and Currents Weather Stations Pressure Air Temp Water Temp Dewpoint Dewpoint Depression Visibility Wind Speed Wind Dir Waves Ship Positions

Alem Mar

Last reported at 2017-Sep-25 22:57 UTC. Time now 2017-Sep-26 02:03 UTC.
Position N 41°02' W 008°46'.

Type: Fishing. MMSI: 263414680.

Date/timePositionNaut miles runAvg speedWind from/ knotsBaromVisibWave heightAir tempDewpointWater temp
2017-Sep-25 22:57N 41°02' W 008°46'4 9.8
2017-Sep-25 22:31N 41°06' W 008°44'5 9.5
2017-Sep-25 22:01N 41°11' W 008°42'0 0.5
2017-Sep-25 21:31N 41°11' W 008°42'0 0.0
2017-Sep-25 21:00N 41°11' W 008°42'0 0.0
2017-Sep-25 20:31N 41°11' W 008°42'0 0.0
2017-Sep-25 20:00N 41°11' W 008°42'0 0.0
2017-Sep-25 19:31N 41°11' W 008°42'0 0.0
2017-Sep-25 19:01N 41°11' W 008°42'0 0.0
2017-Sep-25 18:31N 41°11' W 008°42'0 0.0
2017-Sep-25 18:01N 41°11' W 008°42'0 0.0
2017-Sep-25 17:31N 41°11' W 008°42'0 0.0
2017-Sep-25 17:01N 41°11' W 008°42'0 0.0
2017-Sep-25 16:31N 41°11' W 008°42'0 0.0
2017-Sep-25 16:01N 41°11' W 008°42'0 0.0
2017-Sep-25 15:31N 41°11' W 008°42'0 0.0
2017-Sep-25 15:01N 41°11' W 008°42'0 0.0
2017-Sep-25 14:31N 41°11' W 008°42'0 0.0
2017-Sep-25 14:01N 41°11' W 008°42'0 0.0
2017-Sep-25 13:31N 41°11' W 008°42'0 0.0
2017-Sep-25 13:01N 41°11' W 008°42'0 0.0
2017-Sep-25 12:31N 41°11' W 008°42'0 0.0
2017-Sep-25 12:01N 41°11' W 008°42'0 0.0
2017-Sep-25 11:31N 41°11' W 008°42'0 0.0
2017-Sep-25 11:01N 41°11' W 008°42'0 0.0
2017-Sep-25 10:31N 41°11' W 008°42'0 0.0
2017-Sep-25 10:01N 41°11' W 008°42'0 0.0
2017-Sep-25 09:31N 41°11' W 008°42'0 0.0
2017-Sep-25 09:00N 41°11' W 008°42'0 0.0
2017-Sep-25 08:30N 41°11' W 008°42'0 0.0
2017-Sep-25 08:01N 41°11' W 008°42'0 0.0
2017-Sep-25 07:31N 41°11' W 008°42'0 0.0
2017-Sep-25 07:01N 41°11' W 008°42'0 0.0
2017-Sep-25 06:31N 41°11' W 008°42'4 0.6
2017-Sep-24 23:21N 41°08' W 008°45'3 9.4
2017-Sep-24 23:01N 41°10' W 008°43'  
2017-Sep-21 22:41N 41°05' W 008°43'210.4
2017-Sep-21 22:30N 41°07' W 008°43'4 7.7
2017-Sep-21 22:00N 41°11' W 008°42'  

Dump ship's entire track history